sensor_id;sensor_type;location;lat;lon;timestamp;P1;durP1;ratioP1;P2;durP2;ratioP2
23506;SDS011;11930;53.076;18.250;2023-08-20T00:01:13;33.75;;;24.05;;
23506;SDS011;11930;53.076;18.250;2023-08-20T00:03:42;31.42;;;24.83;;
23506;SDS011;11930;53.076;18.250;2023-08-20T00:06:09;27.55;;;24.20;;
23506;SDS011;11930;53.076;18.250;2023-08-20T00:08:35;29.50;;;23.10;;
23506;SDS011;11930;53.076;18.250;2023-08-20T00:11:01;29.25;;;21.85;;
23506;SDS011;11930;53.076;18.250;2023-08-20T00:13:28;29.15;;;23.10;;
23506;SDS011;11930;53.076;18.250;2023-08-20T00:15:54;28.15;;;23.13;;
23506;SDS011;11930;53.076;18.250;2023-08-20T00:18:20;30.67;;;23.58;;
23506;SDS011;11930;53.076;18.250;2023-08-20T00:20:47;30.10;;;23.70;;
23506;SDS011;11930;53.076;18.250;2023-08-20T00:23:13;29.73;;;24.42;;
23506;SDS011;11930;53.076;18.250;2023-08-20T00:25:40;29.92;;;23.33;;
23506;SDS011;11930;53.076;18.250;2023-08-20T00:28:06;29.55;;;24.27;;
23506;SDS011;11930;53.076;18.250;2023-08-20T00:30:33;30.92;;;24.88;;
23506;SDS011;11930;53.076;18.250;2023-08-20T00:32:58;31.33;;;25.25;;
23506;SDS011;11930;53.076;18.250;2023-08-20T00:35:24;31.42;;;24.73;;
23506;SDS011;11930;53.076;18.250;2023-08-20T00:37:50;33.25;;;24.30;;
23506;SDS011;11930;53.076;18.250;2023-08-20T00:40:17;27.85;;;24.13;;
23506;SDS011;11930;53.076;18.250;2023-08-20T00:42:43;32.40;;;24.17;;
23506;SDS011;11930;53.076;18.250;2023-08-20T00:45:09;30.65;;;23.38;;
23506;SDS011;11930;53.076;18.250;2023-08-20T00:47:35;30.05;;;24.45;;
23506;SDS011;11930;53.076;18.250;2023-08-20T00:50:02;30.08;;;23.63;;
23506;SDS011;11930;53.076;18.250;2023-08-20T00:52:37;28.38;;;23.75;;
23506;SDS011;11930;53.076;18.250;2023-08-20T00:55:06;33.65;;;25.75;;
23506;SDS011;11930;53.076;18.250;2023-08-20T00:57:38;30.45;;;23.55;;
23506;SDS011;11930;53.076;18.250;2023-08-20T01:00:05;28.70;;;23.30;;
23506;SDS011;11930;53.076;18.250;2023-08-20T01:02:35;31.33;;;23.85;;
23506;SDS011;11930;53.076;18.250;2023-08-20T01:05:03;32.25;;;24.35;;
23506;SDS011;11930;53.076;18.250;2023-08-20T01:13:17;33.30;;;24.40;;
23506;SDS011;11930;53.076;18.250;2023-08-20T01:15:44;34.38;;;24.83;;
23506;SDS011;11930;53.076;18.250;2023-08-20T01:18:10;31.80;;;24.83;;
23506;SDS011;11930;53.076;18.250;2023-08-20T01:20:39;30.73;;;24.13;;
23506;SDS011;11930;53.076;18.250;2023-08-20T01:28:45;30.50;;;23.20;;
23506;SDS011;11930;53.076;18.250;2023-08-20T01:31:12;29.95;;;24.25;;
23506;SDS011;11930;53.076;18.250;2023-08-20T01:33:39;28.05;;;23.02;;
23506;SDS011;11930;53.076;18.250;2023-08-20T01:36:07;29.27;;;23.67;;
23506;SDS011;11930;53.076;18.250;2023-08-20T01:38:35;28.00;;;22.75;;
23506;SDS011;11930;53.076;18.250;2023-08-20T01:41:03;30.35;;;23.05;;
23506;SDS011;11930;53.076;18.250;2023-08-20T01:43:29;28.83;;;22.33;;
23506;SDS011;11930;53.076;18.250;2023-08-20T01:45:56;30.17;;;23.33;;
23506;SDS011;11930;53.076;18.250;2023-08-20T01:48:23;28.20;;;22.38;;
23506;SDS011;11930;53.076;18.250;2023-08-20T01:50:49;29.88;;;23.85;;
23506;SDS011;11930;53.076;18.250;2023-08-20T01:53:15;26.77;;;22.95;;
23506;SDS011;11930;53.076;18.250;2023-08-20T01:55:41;29.15;;;23.05;;
23506;SDS011;11930;53.076;18.250;2023-08-20T01:58:07;28.70;;;23.60;;
23506;SDS011;11930;53.076;18.250;2023-08-20T02:00:33;26.40;;;21.83;;
23506;SDS011;11930;53.076;18.250;2023-08-20T02:02:59;28.70;;;23.52;;
23506;SDS011;11930;53.076;18.250;2023-08-20T02:05:26;28.23;;;22.50;;
23506;SDS011;11930;53.076;18.250;2023-08-20T02:07:51;29.42;;;22.17;;
23506;SDS011;11930;53.076;18.250;2023-08-20T02:10:19;27.55;;;21.88;;
23506;SDS011;11930;53.076;18.250;2023-08-20T02:12:46;25.38;;;21.90;;
23506;SDS011;11930;53.076;18.250;2023-08-20T02:15:12;26.17;;;22.83;;
23506;SDS011;11930;53.076;18.250;2023-08-20T02:17:38;32.58;;;23.73;;
23506;SDS011;11930;53.076;18.250;2023-08-20T02:20:04;26.70;;;22.67;;
23506;SDS011;11930;53.076;18.250;2023-08-20T02:22:31;29.73;;;22.70;;
23506;SDS011;11930;53.076;18.250;2023-08-20T02:24:59;29.73;;;23.35;;
23506;SDS011;11930;53.076;18.250;2023-08-20T02:27:25;27.65;;;22.95;;
23506;SDS011;11930;53.076;18.250;2023-08-20T02:29:51;26.38;;;21.65;;
23506;SDS011;11930;53.076;18.250;2023-08-20T02:32:17;27.65;;;21.73;;
23506;SDS011;11930;53.076;18.250;2023-08-20T02:34:43;27.05;;;22.13;;
23506;SDS011;11930;53.076;18.250;2023-08-20T02:37:09;30.60;;;22.75;;
23506;SDS011;11930;53.076;18.250;2023-08-20T02:39:35;27.75;;;21.40;;
23506;SDS011;11930;53.076;18.250;2023-08-20T02:42:01;26.65;;;22.60;;
23506;SDS011;11930;53.076;18.250;2023-08-20T02:44:27;29.98;;;22.83;;
23506;SDS011;11930;53.076;18.250;2023-08-20T02:46:53;27.23;;;22.75;;
23506;SDS011;11930;53.076;18.250;2023-08-20T02:49:19;29.30;;;23.42;;
23506;SDS011;11930;53.076;18.250;2023-08-20T02:51:45;30.90;;;23.35;;
23506;SDS011;11930;53.076;18.250;2023-08-20T02:54:11;31.02;;;24.00;;
23506;SDS011;11930;53.076;18.250;2023-08-20T02:56:37;27.48;;;23.27;;
23506;SDS011;11930;53.076;18.250;2023-08-20T02:59:03;28.60;;;23.35;;
23506;SDS011;11930;53.076;18.250;2023-08-20T03:01:30;29.08;;;23.83;;
23506;SDS011;11930;53.076;18.250;2023-08-20T03:03:56;29.85;;;23.73;;
23506;SDS011;11930;53.076;18.250;2023-08-20T03:06:22;32.90;;;24.58;;
23506;SDS011;11930;53.076;18.250;2023-08-20T03:08:48;30.23;;;24.25;;
23506;SDS011;11930;53.076;18.250;2023-08-20T03:11:14;28.88;;;23.00;;
23506;SDS011;11930;53.076;18.250;2023-08-20T03:13:40;27.52;;;22.45;;
23506;SDS011;11930;53.076;18.250;2023-08-20T03:16:06;29.48;;;23.05;;
23506;SDS011;11930;53.076;18.250;2023-08-20T03:18:33;26.67;;;22.08;;
23506;SDS011;11930;53.076;18.250;2023-08-20T03:20:59;27.35;;;21.88;;
23506;SDS011;11930;53.076;18.250;2023-08-20T03:23:25;26.10;;;22.00;;
23506;SDS011;11930;53.076;18.250;2023-08-20T03:25:52;26.60;;;22.23;;
23506;SDS011;11930;53.076;18.250;2023-08-20T03:28:18;27.00;;;21.23;;
23506;SDS011;11930;53.076;18.250;2023-08-20T03:30:44;26.02;;;21.23;;
23506;SDS011;11930;53.076;18.250;2023-08-20T03:33:14;25.58;;;20.92;;
23506;SDS011;11930;53.076;18.250;2023-08-20T03:35:42;24.08;;;20.65;;
23506;SDS011;11930;53.076;18.250;2023-08-20T03:38:08;24.77;;;21.27;;
23506;SDS011;11930;53.076;18.250;2023-08-20T03:40:34;25.52;;;21.50;;
23506;SDS011;11930;53.076;18.250;2023-08-20T03:43:01;26.90;;;21.60;;
23506;SDS011;11930;53.076;18.250;2023-08-20T03:45:29;27.48;;;21.17;;
23506;SDS011;11930;53.076;18.250;2023-08-20T03:47:56;25.60;;;20.70;;
23506;SDS011;11930;53.076;18.250;2023-08-20T03:50:22;30.50;;;23.05;;
23506;SDS011;11930;53.076;18.250;2023-08-20T03:52:48;29.60;;;22.88;;
23506;SDS011;11930;53.076;18.250;2023-08-20T03:55:15;32.00;;;25.38;;
23506;SDS011;11930;53.076;18.250;2023-08-20T03:57:41;28.98;;;23.70;;
23506;SDS011;11930;53.076;18.250;2023-08-20T04:00:08;29.83;;;23.45;;
23506;SDS011;11930;53.076;18.250;2023-08-20T04:02:40;30.13;;;22.90;;
23506;SDS011;11930;53.076;18.250;2023-08-20T04:05:07;31.00;;;24.75;;
23506;SDS011;11930;53.076;18.250;2023-08-20T04:07:33;29.48;;;23.98;;
23506;SDS011;11930;53.076;18.250;2023-08-20T04:09:59;29.58;;;23.67;;
23506;SDS011;11930;53.076;18.250;2023-08-20T04:12:25;28.38;;;23.70;;
23506;SDS011;11930;53.076;18.250;2023-08-20T04:14:51;32.28;;;24.10;;
23506;SDS011;11930;53.076;18.250;2023-08-20T04:17:17;29.70;;;23.38;;
23506;SDS011;11930;53.076;18.250;2023-08-20T04:19:44;30.90;;;24.63;;
23506;SDS011;11930;53.076;18.250;2023-08-20T04:22:10;32.35;;;24.33;;
23506;SDS011;11930;53.076;18.250;2023-08-20T04:24:36;31.67;;;24.42;;
23506;SDS011;11930;53.076;18.250;2023-08-20T04:27:02;29.20;;;24.30;;
23506;SDS011;11930;53.076;18.250;2023-08-20T04:29:28;27.58;;;22.90;;
23506;SDS011;11930;53.076;18.250;2023-08-20T04:31:55;27.63;;;22.67;;
23506;SDS011;11930;53.076;18.250;2023-08-20T04:34:21;25.90;;;22.67;;
23506;SDS011;11930;53.076;18.250;2023-08-20T04:36:50;27.55;;;22.60;;
23506;SDS011;11930;53.076;18.250;2023-08-20T04:39:17;25.65;;;21.67;;
23506;SDS011;11930;53.076;18.250;2023-08-20T04:41:48;25.92;;;21.95;;
23506;SDS011;11930;53.076;18.250;2023-08-20T04:44:16;24.65;;;21.90;;
23506;SDS011;11930;53.076;18.250;2023-08-20T04:46:43;24.55;;;20.63;;
23506;SDS011;11930;53.076;18.250;2023-08-20T04:49:10;27.60;;;22.75;;
23506;SDS011;11930;53.076;18.250;2023-08-20T04:51:37;27.17;;;22.92;;
23506;SDS011;11930;53.076;18.250;2023-08-20T04:54:03;26.30;;;22.73;;
23506;SDS011;11930;53.076;18.250;2023-08-20T04:56:30;25.42;;;21.88;;
23506;SDS011;11930;53.076;18.250;2023-08-20T04:58:56;27.17;;;23.20;;
23506;SDS011;11930;53.076;18.250;2023-08-20T05:01:45;24.27;;;21.40;;
23506;SDS011;11930;53.076;18.250;2023-08-20T05:04:12;26.88;;;21.65;;
23506;SDS011;11930;53.076;18.250;2023-08-20T05:06:38;26.08;;;22.20;;
23506;SDS011;11930;53.076;18.250;2023-08-20T05:09:05;26.52;;;23.33;;
23506;SDS011;11930;53.076;18.250;2023-08-20T05:11:32;29.27;;;22.45;;
23506;SDS011;11930;53.076;18.250;2023-08-20T05:13:58;26.00;;;22.77;;
23506;SDS011;11930;53.076;18.250;2023-08-20T05:16:25;25.38;;;22.42;;
23506;SDS011;11930;53.076;18.250;2023-08-20T05:18:52;24.83;;;21.83;;
23506;SDS011;11930;53.076;18.250;2023-08-20T05:21:18;26.60;;;22.15;;
23506;SDS011;11930;53.076;18.250;2023-08-20T05:23:44;24.63;;;21.98;;
23506;SDS011;11930;53.076;18.250;2023-08-20T05:26:11;25.65;;;22.77;;
23506;SDS011;11930;53.076;18.250;2023-08-20T05:28:37;27.58;;;23.23;;
23506;SDS011;11930;53.076;18.250;2023-08-20T05:31:03;29.60;;;24.17;;
23506;SDS011;11930;53.076;18.250;2023-08-20T05:33:30;30.40;;;24.42;;
23506;SDS011;11930;53.076;18.250;2023-08-20T05:35:57;28.00;;;24.58;;
23506;SDS011;11930;53.076;18.250;2023-08-20T05:38:24;29.02;;;24.45;;
23506;SDS011;11930;53.076;18.250;2023-08-20T05:40:50;30.20;;;24.23;;
23506;SDS011;11930;53.076;18.250;2023-08-20T05:43:16;26.33;;;23.23;;
23506;SDS011;11930;53.076;18.250;2023-08-20T05:45:43;29.88;;;24.27;;
23506;SDS011;11930;53.076;18.250;2023-08-20T05:48:12;27.15;;;23.63;;
23506;SDS011;11930;53.076;18.250;2023-08-20T05:50:38;29.55;;;24.63;;
23506;SDS011;11930;53.076;18.250;2023-08-20T05:53:04;29.67;;;24.30;;
23506;SDS011;11930;53.076;18.250;2023-08-20T05:55:32;31.13;;;26.23;;
23506;SDS011;11930;53.076;18.250;2023-08-20T05:57:59;28.65;;;25.48;;
23506;SDS011;11930;53.076;18.250;2023-08-20T06:00:26;29.13;;;24.98;;
23506;SDS011;11930;53.076;18.250;2023-08-20T06:02:52;27.63;;;24.10;;
23506;SDS011;11930;53.076;18.250;2023-08-20T06:05:18;27.17;;;24.25;;
23506;SDS011;11930;53.076;18.250;2023-08-20T06:07:44;31.00;;;24.73;;
23506;SDS011;11930;53.076;18.250;2023-08-20T06:10:10;27.38;;;23.38;;
23506;SDS011;11930;53.076;18.250;2023-08-20T06:12:37;27.30;;;23.35;;
23506;SDS011;11930;53.076;18.250;2023-08-20T06:15:03;26.63;;;23.20;;
23506;SDS011;11930;53.076;18.250;2023-08-20T06:17:30;30.05;;;23.00;;
23506;SDS011;11930;53.076;18.250;2023-08-20T06:19:56;24.85;;;22.17;;
23506;SDS011;11930;53.076;18.250;2023-08-20T06:22:22;24.58;;;21.65;;
23506;SDS011;11930;53.076;18.250;2023-08-20T06:24:48;26.98;;;22.60;;
23506;SDS011;11930;53.076;18.250;2023-08-20T06:27:14;24.05;;;20.17;;
23506;SDS011;11930;53.076;18.250;2023-08-20T06:29:40;22.23;;;19.45;;
23506;SDS011;11930;53.076;18.250;2023-08-20T06:32:06;22.40;;;19.77;;
23506;SDS011;11930;53.076;18.250;2023-08-20T06:34:33;21.67;;;19.00;;
23506;SDS011;11930;53.076;18.250;2023-08-20T06:37:00;23.88;;;19.77;;
23506;SDS011;11930;53.076;18.250;2023-08-20T06:39:26;21.90;;;18.27;;
23506;SDS011;11930;53.076;18.250;2023-08-20T06:41:52;21.10;;;18.80;;
23506;SDS011;11930;53.076;18.250;2023-08-20T06:44:19;21.13;;;18.88;;
23506;SDS011;11930;53.076;18.250;2023-08-20T06:46:45;21.23;;;18.48;;
23506;SDS011;11930;53.076;18.250;2023-08-20T06:49:11;20.15;;;17.88;;
23506;SDS011;11930;53.076;18.250;2023-08-20T06:51:37;20.80;;;18.52;;
23506;SDS011;11930;53.076;18.250;2023-08-20T06:54:03;20.27;;;17.77;;
23506;SDS011;11930;53.076;18.250;2023-08-20T06:56:31;19.23;;;17.17;;
23506;SDS011;11930;53.076;18.250;2023-08-20T06:58:58;18.10;;;16.20;;
23506;SDS011;11930;53.076;18.250;2023-08-20T07:01:25;19.20;;;17.08;;
23506;SDS011;11930;53.076;18.250;2023-08-20T07:03:51;18.08;;;16.17;;
23506;SDS011;11930;53.076;18.250;2023-08-20T07:06:17;17.90;;;15.52;;
23506;SDS011;11930;53.076;18.250;2023-08-20T07:08:44;20.55;;;16.42;;
23506;SDS011;11930;53.076;18.250;2023-08-20T07:11:10;18.10;;;16.15;;
23506;SDS011;11930;53.076;18.250;2023-08-20T07:13:36;17.70;;;15.80;;
23506;SDS011;11930;53.076;18.250;2023-08-20T07:16:02;18.70;;;16.13;;
23506;SDS011;11930;53.076;18.250;2023-08-20T07:18:29;17.65;;;15.85;;
23506;SDS011;11930;53.076;18.250;2023-08-20T07:20:55;15.80;;;14.23;;
23506;SDS011;11930;53.076;18.250;2023-08-20T07:23:21;20.20;;;16.30;;
23506;SDS011;11930;53.076;18.250;2023-08-20T07:25:47;16.85;;;15.15;;
23506;SDS011;11930;53.076;18.250;2023-08-20T07:28:17;20.02;;;15.60;;
23506;SDS011;11930;53.076;18.250;2023-08-20T07:30:52;16.42;;;14.73;;
23506;SDS011;11930;53.076;18.250;2023-08-20T07:33:18;15.25;;;13.75;;
23506;SDS011;11930;53.076;18.250;2023-08-20T07:35:44;15.07;;;13.45;;
23506;SDS011;11930;53.076;18.250;2023-08-20T07:38:10;14.45;;;12.98;;
23506;SDS011;11930;53.076;18.250;2023-08-20T07:40:36;14.38;;;12.73;;
23506;SDS011;11930;53.076;18.250;2023-08-20T07:43:02;14.07;;;12.77;;
23506;SDS011;11930;53.076;18.250;2023-08-20T07:45:28;14.98;;;12.20;;
23506;SDS011;11930;53.076;18.250;2023-08-20T07:47:54;13.18;;;11.93;;
23506;SDS011;11930;53.076;18.250;2023-08-20T07:50:20;13.25;;;11.95;;
23506;SDS011;11930;53.076;18.250;2023-08-20T07:52:46;13.05;;;11.75;;
23506;SDS011;11930;53.076;18.250;2023-08-20T07:55:12;13.98;;;12.48;;
23506;SDS011;11930;53.076;18.250;2023-08-20T07:57:38;12.82;;;11.52;;
23506;SDS011;11930;53.076;18.250;2023-08-20T08:00:04;12.65;;;11.30;;
23506;SDS011;11930;53.076;18.250;2023-08-20T08:02:36;12.35;;;11.07;;
23506;SDS011;11930;53.076;18.250;2023-08-20T08:05:03;12.70;;;11.50;;
23506;SDS011;11930;53.076;18.250;2023-08-20T08:07:29;12.30;;;10.77;;
23506;SDS011;11930;53.076;18.250;2023-08-20T08:09:55;11.70;;;10.55;;
23506;SDS011;11930;53.076;18.250;2023-08-20T08:12:21;13.15;;;11.85;;
23506;SDS011;11930;53.076;18.250;2023-08-20T08:14:47;14.43;;;11.25;;
23506;SDS011;11930;53.076;18.250;2023-08-20T08:17:13;11.77;;;10.75;;
23506;SDS011;11930;53.076;18.250;2023-08-20T08:19:39;12.15;;;10.95;;
23506;SDS011;11930;53.076;18.250;2023-08-20T08:22:05;12.98;;;11.57;;
23506;SDS011;11930;53.076;18.250;2023-08-20T08:24:31;13.32;;;11.00;;
23506;SDS011;11930;53.076;18.250;2023-08-20T08:26:57;16.02;;;11.30;;
23506;SDS011;11930;53.076;18.250;2023-08-20T08:29:23;12.73;;;11.38;;
23506;SDS011;11930;53.076;18.250;2023-08-20T08:31:49;12.50;;;11.18;;
23506;SDS011;11930;53.076;18.250;2023-08-20T08:34:15;12.25;;;11.05;;
23506;SDS011;11930;53.076;18.250;2023-08-20T08:36:41;11.90;;;10.55;;
23506;SDS011;11930;53.076;18.250;2023-08-20T08:39:07;12.20;;;11.00;;
23506;SDS011;11930;53.076;18.250;2023-08-20T08:41:33;12.13;;;10.80;;
23506;SDS011;11930;53.076;18.250;2023-08-20T08:44:04;11.68;;;10.57;;
23506;SDS011;11930;53.076;18.250;2023-08-20T08:46:33;11.40;;;10.30;;
23506;SDS011;11930;53.076;18.250;2023-08-20T08:49:01;11.93;;;10.73;;
23506;SDS011;11930;53.076;18.250;2023-08-20T08:51:26;10.82;;;9.73;;
23506;SDS011;11930;53.076;18.250;2023-08-20T08:53:53;12.00;;;10.80;;
23506;SDS011;11930;53.076;18.250;2023-08-20T08:56:20;11.65;;;10.30;;
23506;SDS011;11930;53.076;18.250;2023-08-20T08:58:47;11.20;;;10.10;;
23506;SDS011;11930;53.076;18.250;2023-08-20T09:01:13;10.52;;;9.52;;
23506;SDS011;11930;53.076;18.250;2023-08-20T09:03:39;9.90;;;8.90;;
23506;SDS011;11930;53.076;18.250;2023-08-20T09:06:08;10.55;;;9.55;;
23506;SDS011;11930;53.076;18.250;2023-08-20T09:08:35;10.13;;;8.85;;
23506;SDS011;11930;53.076;18.250;2023-08-20T09:11:01;9.98;;;9.07;;
23506;SDS011;11930;53.076;18.250;2023-08-20T09:13:38;10.05;;;9.15;;
23506;SDS011;11930;53.076;18.250;2023-08-20T09:16:05;9.73;;;8.77;;
23506;SDS011;11930;53.076;18.250;2023-08-20T09:18:41;11.05;;;8.98;;
23506;SDS011;11930;53.076;18.250;2023-08-20T09:21:10;9.02;;;8.23;;
23506;SDS011;11930;53.076;18.250;2023-08-20T09:23:37;9.60;;;8.60;;
23506;SDS011;11930;53.076;18.250;2023-08-20T09:26:04;9.88;;;8.80;;
23506;SDS011;11930;53.076;18.250;2023-08-20T09:28:43;10.18;;;9.18;;
23506;SDS011;11930;53.076;18.250;2023-08-20T09:31:11;9.18;;;8.30;;
23506;SDS011;11930;53.076;18.250;2023-08-20T09:33:48;9.25;;;8.35;;
23506;SDS011;11930;53.076;18.250;2023-08-20T09:36:15;9.70;;;8.40;;
23506;SDS011;11930;53.076;18.250;2023-08-20T09:38:41;9.32;;;8.43;;
23506;SDS011;11930;53.076;18.250;2023-08-20T09:41:08;10.13;;;9.00;;
23506;SDS011;11930;53.076;18.250;2023-08-20T09:43:36;10.85;;;9.55;;
23506;SDS011;11930;53.076;18.250;2023-08-20T09:46:04;8.77;;;7.88;;
23506;SDS011;11930;53.076;18.250;2023-08-20T09:48:35;9.95;;;8.75;;
23506;SDS011;11930;53.076;18.250;2023-08-20T09:51:05;10.27;;;9.07;;
23506;SDS011;11930;53.076;18.250;2023-08-20T09:53:48;10.07;;;9.07;;
23506;SDS011;11930;53.076;18.250;2023-08-20T09:56:27;12.55;;;9.50;;
23506;SDS011;11930;53.076;18.250;2023-08-20T09:58:55;9.77;;;8.77;;
23506;SDS011;11930;53.076;18.250;2023-08-20T10:01:23;10.27;;;9.20;;
23506;SDS011;11930;53.076;18.250;2023-08-20T10:03:50;11.10;;;9.05;;
23506;SDS011;11930;53.076;18.250;2023-08-20T10:06:16;10.07;;;9.07;;
23506;SDS011;11930;53.076;18.250;2023-08-20T10:08:44;10.45;;;9.35;;
23506;SDS011;11930;53.076;18.250;2023-08-20T10:11:12;9.68;;;8.73;;
23506;SDS011;11930;53.076;18.250;2023-08-20T10:13:38;9.90;;;8.90;;
23506;SDS011;11930;53.076;18.250;2023-08-20T10:16:04;9.70;;;7.90;;
23506;SDS011;11930;53.076;18.250;2023-08-20T10:18:31;10.88;;;8.70;;
23506;SDS011;11930;53.076;18.250;2023-08-20T10:21:01;12.48;;;8.63;;
23506;SDS011;11930;53.076;18.250;2023-08-20T10:23:28;9.55;;;8.55;;
23506;SDS011;11930;53.076;18.250;2023-08-20T10:25:54;9.68;;;8.68;;
23506;SDS011;11930;53.076;18.250;2023-08-20T10:28:31;9.90;;;9.00;;
23506;SDS011;11930;53.076;18.250;2023-08-20T10:31:04;9.80;;;8.27;;
23506;SDS011;11930;53.076;18.250;2023-08-20T10:33:33;9.70;;;8.15;;
23506;SDS011;11930;53.076;18.250;2023-08-20T10:39:06;9.13;;;8.25;;
23506;SDS011;11930;53.076;18.250;2023-08-20T10:41:48;10.20;;;8.70;;
23506;SDS011;11930;53.076;18.250;2023-08-20T10:47:24;9.13;;;7.88;;
23506;SDS011;11930;53.076;18.250;2023-08-20T10:49:54;9.77;;;8.63;;
23506;SDS011;11930;53.076;18.250;2023-08-20T10:52:20;9.57;;;8.48;;
23506;SDS011;11930;53.076;18.250;2023-08-20T10:54:51;13.85;;;11.18;;
23506;SDS011;11930;53.076;18.250;2023-08-20T10:57:18;10.68;;;9.68;;
23506;SDS011;11930;53.076;18.250;2023-08-20T10:59:56;11.10;;;8.32;;
23506;SDS011;11930;53.076;18.250;2023-08-20T11:02:26;10.00;;;8.82;;
23506;SDS011;11930;53.076;18.250;2023-08-20T11:04:53;10.18;;;9.18;;
23506;SDS011;11930;53.076;18.250;2023-08-20T11:07:19;8.75;;;7.95;;
23506;SDS011;11930;53.076;18.250;2023-08-20T11:09:46;10.45;;;9.23;;
23506;SDS011;11930;53.076;18.250;2023-08-20T11:12:15;10.00;;;8.95;;
23506;SDS011;11930;53.076;18.250;2023-08-20T11:14:41;11.02;;;9.48;;
23506;SDS011;11930;53.076;18.250;2023-08-20T11:17:07;13.07;;;9.30;;
23506;SDS011;11930;53.076;18.250;2023-08-20T11:19:34;10.57;;;9.02;;
23506;SDS011;11930;53.076;18.250;2023-08-20T11:22:01;9.90;;;8.90;;
23506;SDS011;11930;53.076;18.250;2023-08-20T11:24:28;11.00;;;9.65;;
23506;SDS011;11930;53.076;18.250;2023-08-20T11:26:54;10.23;;;8.88;;
23506;SDS011;11930;53.076;18.250;2023-08-20T11:29:21;10.95;;;9.57;;
23506;SDS011;11930;53.076;18.250;2023-08-20T11:31:47;10.00;;;9.00;;
23506;SDS011;11930;53.076;18.250;2023-08-20T11:34:14;10.65;;;9.23;;
23506;SDS011;11930;53.076;18.250;2023-08-20T11:36:40;10.70;;;9.60;;
23506;SDS011;11930;53.076;18.250;2023-08-20T11:39:07;10.32;;;9.23;;
23506;SDS011;11930;53.076;18.250;2023-08-20T11:41:35;10.45;;;9.35;;
23506;SDS011;11930;53.076;18.250;2023-08-20T11:44:03;10.48;;;9.38;;
23506;SDS011;11930;53.076;18.250;2023-08-20T11:46:29;9.77;;;8.82;;
23506;SDS011;11930;53.076;18.250;2023-08-20T11:48:59;9.65;;;8.75;;
23506;SDS011;11930;53.076;18.250;2023-08-20T11:51:29;9.80;;;8.80;;
23506;SDS011;11930;53.076;18.250;2023-08-20T11:54:11;9.45;;;8.45;;
23506;SDS011;11930;53.076;18.250;2023-08-20T11:59:15;9.77;;;8.80;;
23506;SDS011;11930;53.076;18.250;2023-08-20T12:01:41;10.30;;;9.10;;
23506;SDS011;11930;53.076;18.250;2023-08-20T12:04:08;10.38;;;8.80;;
23506;SDS011;11930;53.076;18.250;2023-08-20T12:06:36;10.82;;;8.50;;
23506;SDS011;11930;53.076;18.250;2023-08-20T12:09:22;9.00;;;8.13;;
23506;SDS011;11930;53.076;18.250;2023-08-20T12:11:49;9.05;;;8.15;;
23506;SDS011;11930;53.076;18.250;2023-08-20T12:14:17;9.10;;;7.97;;
23506;SDS011;11930;53.076;18.250;2023-08-20T12:16:43;9.85;;;8.27;;
23506;SDS011;11930;53.076;18.250;2023-08-20T12:19:09;9.38;;;8.07;;
23506;SDS011;11930;53.076;18.250;2023-08-20T12:21:35;12.38;;;9.32;;
23506;SDS011;11930;53.076;18.250;2023-08-20T12:24:02;8.73;;;7.90;;
23506;SDS011;11930;53.076;18.250;2023-08-20T12:26:29;9.10;;;8.20;;
23506;SDS011;11930;53.076;18.250;2023-08-20T12:28:55;9.60;;;7.68;;
23506;SDS011;11930;53.076;18.250;2023-08-20T12:31:21;9.70;;;7.85;;
23506;SDS011;11930;53.076;18.250;2023-08-20T12:33:47;9.93;;;7.55;;
23506;SDS011;11930;53.076;18.250;2023-08-20T12:36:13;11.18;;;8.00;;
23506;SDS011;11930;53.076;18.250;2023-08-20T12:38:40;8.70;;;7.75;;
23506;SDS011;11930;53.076;18.250;2023-08-20T12:41:07;8.43;;;7.50;;
23506;SDS011;11930;53.076;18.250;2023-08-20T12:43:33;8.45;;;7.55;;
23506;SDS011;11930;53.076;18.250;2023-08-20T12:45:59;8.50;;;7.70;;
23506;SDS011;11930;53.076;18.250;2023-08-20T12:48:25;9.10;;;8.10;;
23506;SDS011;11930;53.076;18.250;2023-08-20T12:50:51;9.02;;;8.10;;
23506;SDS011;11930;53.076;18.250;2023-08-20T12:53:17;8.98;;;8.15;;
23506;SDS011;11930;53.076;18.250;2023-08-20T12:55:44;12.00;;;8.18;;
23506;SDS011;11930;53.076;18.250;2023-08-20T12:58:10;9.63;;;7.57;;
23506;SDS011;11930;53.076;18.250;2023-08-20T13:00:36;9.10;;;8.20;;
23506;SDS011;11930;53.076;18.250;2023-08-20T13:03:02;8.35;;;7.43;;
23506;SDS011;11930;53.076;18.250;2023-08-20T13:05:29;9.30;;;8.35;;
23506;SDS011;11930;53.076;18.250;2023-08-20T13:07:55;12.25;;;8.63;;
23506;SDS011;11930;53.076;18.250;2023-08-20T13:10:22;11.07;;;7.82;;
23506;SDS011;11930;53.076;18.250;2023-08-20T13:12:49;8.10;;;7.28;;
23506;SDS011;11930;53.076;18.250;2023-08-20T13:15:19;8.02;;;7.22;;
23506;SDS011;11930;53.076;18.250;2023-08-20T13:17:47;10.18;;;7.68;;
23506;SDS011;11930;53.076;18.250;2023-08-20T13:20:15;8.40;;;7.57;;
23506;SDS011;11930;53.076;18.250;2023-08-20T13:22:49;8.73;;;7.68;;
23506;SDS011;11930;53.076;18.250;2023-08-20T13:25:17;8.30;;;7.40;;
23506;SDS011;11930;53.076;18.250;2023-08-20T13:27:43;10.38;;;7.90;;
23506;SDS011;11930;53.076;18.250;2023-08-20T13:30:09;8.23;;;7.43;;
23506;SDS011;11930;53.076;18.250;2023-08-20T13:32:36;9.13;;;7.85;;
23506;SDS011;11930;53.076;18.250;2023-08-20T13:35:03;8.35;;;7.55;;
23506;SDS011;11930;53.076;18.250;2023-08-20T13:37:30;8.80;;;7.15;;
23506;SDS011;11930;53.076;18.250;2023-08-20T13:39:59;9.80;;;8.20;;
23506;SDS011;11930;53.076;18.250;2023-08-20T13:42:26;9.52;;;7.22;;
23506;SDS011;11930;53.076;18.250;2023-08-20T13:44:52;9.90;;;8.05;;
23506;SDS011;11930;53.076;18.250;2023-08-20T13:47:18;8.60;;;7.75;;
23506;SDS011;11930;53.076;18.250;2023-08-20T13:49:44;10.00;;;7.97;;
23506;SDS011;11930;53.076;18.250;2023-08-20T13:52:10;8.93;;;7.35;;
23506;SDS011;11930;53.076;18.250;2023-08-20T13:54:36;9.02;;;8.02;;
23506;SDS011;11930;53.076;18.250;2023-08-20T13:57:03;8.40;;;7.50;;
23506;SDS011;11930;53.076;18.250;2023-08-20T13:59:29;8.00;;;7.20;;
23506;SDS011;11930;53.076;18.250;2023-08-20T14:01:56;7.95;;;7.15;;
23506;SDS011;11930;53.076;18.250;2023-08-20T14:04:23;10.18;;;7.15;;
23506;SDS011;11930;53.076;18.250;2023-08-20T14:06:49;8.90;;;7.40;;
23506;SDS011;11930;53.076;18.250;2023-08-20T14:09:15;8.05;;;7.05;;
23506;SDS011;11930;53.076;18.250;2023-08-20T14:11:43;7.90;;;6.75;;
23506;SDS011;11930;53.076;18.250;2023-08-20T14:14:10;9.38;;;6.90;;
23506;SDS011;11930;53.076;18.250;2023-08-20T14:16:36;8.23;;;7.38;;
23506;SDS011;11930;53.076;18.250;2023-08-20T14:19:02;7.60;;;6.80;;
23506;SDS011;11930;53.076;18.250;2023-08-20T14:21:28;7.28;;;6.57;;
23506;SDS011;11930;53.076;18.250;2023-08-20T14:23:54;8.73;;;7.15;;
23506;SDS011;11930;53.076;18.250;2023-08-20T14:26:20;10.40;;;9.32;;
23506;SDS011;11930;53.076;18.250;2023-08-20T14:28:46;10.13;;;7.47;;
23506;SDS011;11930;53.076;18.250;2023-08-20T14:31:12;8.20;;;7.22;;
23506;SDS011;11930;53.076;18.250;2023-08-20T14:33:39;9.13;;;6.80;;
23506;SDS011;11930;53.076;18.250;2023-08-20T14:36:05;7.38;;;6.57;;